首页
METAR-TAF:

METAR-TAF

机场 :

靜岡機場

靜岡, 日本

纬度: 34-47-46N, 经度: 138-11-22E, 海拔: 132米

当前天气观测

该预报发布于7小时和20分钟前的12:00 UTC
风速4节,风向,在东北东南之间变化
温度 20°C
湿度 100%
气压 1006 hPa
能见度10公里或以上
少量云层高于300英尺
散云层高于1000英尺
多云层高于3000英尺
小雨,

METAR: RJNS 151200Z 08004KT 040V130 9999 -RA FEW003 SCT010 BKN030 20/20 Q1006

时间: 04:20 (19:20 UTC)

预报

该预报发布于2小时和15分钟前的17:05 UTC
预报有效从15日的 18点(UTC)到 17日的 00点(UTC)
风速4节,风向北转东北
能见度10公里或以上
少量云层高于1000英尺
多云层高于2000英尺
短暂存在
从 15日的 18点(UTC)到 15日的 21点(UTC)
能見度: 4000
少量云层高于300英尺
多云层高于800英尺
小雨, 轻雾
成为
从 16日的 06点(UTC)到 16日的 09点(UTC)
风速12节,风向西

TAF: RJNS 151705Z 1518/1700 03004KT 9999 FEW010 BKN020 TEMPO 1518/1521 4000 -RA BR FEW003 BKN008 BECMG 1606/1609 26012KT

超过4000个机场的气象观测和天气预报(METAR&TAF报告)。

可查询的气象台以黄色和红色小点在地图上表示。

将鼠标移到小点上方,可查看气象台名称。

然后点击查看天气观测和预报。

如需切换地图:点击带黑十字的绿色按钮放大地图;点击带横线的绿色按钮缩小地图;或者点击绿色箭头查看邻近地区的地图。


METAR-TAF: